sensor_id;sensor_type;location;lat;lon;timestamp;P1;durP1;ratioP1;P2;durP2;ratioP2
25717;SDS011;13574;52.040;5.692;2022-10-31T00:01:27;14.63;;;8.05;;
25717;SDS011;13574;52.040;5.692;2022-10-31T00:03:58;16.73;;;9.23;;
25717;SDS011;13574;52.040;5.692;2022-10-31T00:06:24;15.02;;;9.65;;
25717;SDS011;13574;52.040;5.692;2022-10-31T00:08:54;15.38;;;10.00;;
25717;SDS011;13574;52.040;5.692;2022-10-31T00:11:21;17.58;;;10.50;;
25717;SDS011;13574;52.040;5.692;2022-10-31T00:13:47;16.02;;;10.02;;
25717;SDS011;13574;52.040;5.692;2022-10-31T00:16:14;14.07;;;9.43;;
25717;SDS011;13574;52.040;5.692;2022-10-31T00:18:54;15.38;;;10.02;;
25717;SDS011;13574;52.040;5.692;2022-10-31T00:21:22;15.65;;;10.55;;
25717;SDS011;13574;52.040;5.692;2022-10-31T00:23:48;18.58;;;9.90;;
25717;SDS011;13574;52.040;5.692;2022-10-31T00:26:13;19.48;;;10.38;;
25717;SDS011;13574;52.040;5.692;2022-10-31T00:28:39;16.10;;;10.30;;
25717;SDS011;13574;52.040;5.692;2022-10-31T00:31:06;18.33;;;10.68;;
25717;SDS011;13574;52.040;5.692;2022-10-31T00:33:33;18.23;;;10.95;;
25717;SDS011;13574;52.040;5.692;2022-10-31T00:36:01;15.65;;;10.48;;
25717;SDS011;13574;52.040;5.692;2022-10-31T00:38:28;19.33;;;11.18;;
25717;SDS011;13574;52.040;5.692;2022-10-31T00:40:54;18.23;;;10.75;;
25717;SDS011;13574;52.040;5.692;2022-10-31T00:43:19;17.95;;;11.70;;
25717;SDS011;13574;52.040;5.692;2022-10-31T00:45:45;17.30;;;11.20;;
25717;SDS011;13574;52.040;5.692;2022-10-31T00:48:11;15.52;;;10.27;;
25717;SDS011;13574;52.040;5.692;2022-10-31T00:50:36;16.55;;;11.02;;
25717;SDS011;13574;52.040;5.692;2022-10-31T00:53:02;16.63;;;10.77;;
25717;SDS011;13574;52.040;5.692;2022-10-31T00:55:28;17.95;;;10.95;;
25717;SDS011;13574;52.040;5.692;2022-10-31T00:57:54;16.65;;;11.55;;
25717;SDS011;13574;52.040;5.692;2022-10-31T01:00:20;19.02;;;10.93;;
25717;SDS011;13574;52.040;5.692;2022-10-31T01:02:46;15.85;;;10.32;;
25717;SDS011;13574;52.040;5.692;2022-10-31T01:05:12;17.70;;;10.85;;
25717;SDS011;13574;52.040;5.692;2022-10-31T01:07:38;20.98;;;9.88;;
25717;SDS011;13574;52.040;5.692;2022-10-31T01:10:05;19.33;;;11.35;;
25717;SDS011;13574;52.040;5.692;2022-10-31T01:12:38;16.25;;;11.40;;
25717;SDS011;13574;52.040;5.692;2022-10-31T01:15:05;18.63;;;11.00;;
25717;SDS011;13574;52.040;5.692;2022-10-31T01:17:32;17.83;;;10.98;;
25717;SDS011;13574;52.040;5.692;2022-10-31T01:19:57;18.98;;;10.13;;
25717;SDS011;13574;52.040;5.692;2022-10-31T01:22:23;20.48;;;12.00;;
25717;SDS011;13574;52.040;5.692;2022-10-31T01:24:49;15.95;;;11.00;;
25717;SDS011;13574;52.040;5.692;2022-10-31T01:27:14;20.13;;;12.07;;
25717;SDS011;13574;52.040;5.692;2022-10-31T01:29:40;16.75;;;10.82;;
25717;SDS011;13574;52.040;5.692;2022-10-31T01:32:05;22.35;;;11.98;;
25717;SDS011;13574;52.040;5.692;2022-10-31T01:34:31;16.10;;;10.95;;
25717;SDS011;13574;52.040;5.692;2022-10-31T01:36:57;16.15;;;10.82;;
25717;SDS011;13574;52.040;5.692;2022-10-31T01:39:22;15.82;;;10.63;;
25717;SDS011;13574;52.040;5.692;2022-10-31T01:41:49;15.95;;;10.75;;
25717;SDS011;13574;52.040;5.692;2022-10-31T01:49:40;19.52;;;11.20;;
25717;SDS011;13574;52.040;5.692;2022-10-31T01:54:39;16.05;;;10.88;;
25717;SDS011;13574;52.040;5.692;2022-10-31T01:57:08;18.05;;;10.80;;
25717;SDS011;13574;52.040;5.692;2022-10-31T01:59:38;18.98;;;11.50;;
25717;SDS011;13574;52.040;5.692;2022-10-31T02:04:33;19.52;;;11.05;;
25717;SDS011;13574;52.040;5.692;2022-10-31T02:07:03;20.25;;;11.60;;
25717;SDS011;13574;52.040;5.692;2022-10-31T02:09:34;16.15;;;10.85;;
25717;SDS011;13574;52.040;5.692;2022-10-31T02:12:01;17.70;;;10.65;;
25717;SDS011;13574;52.040;5.692;2022-10-31T02:14:28;17.60;;;11.68;;
25717;SDS011;13574;52.040;5.692;2022-10-31T02:16:55;20.05;;;10.98;;
25717;SDS011;13574;52.040;5.692;2022-10-31T02:33:45;19.10;;;10.75;;
25717;SDS011;13574;52.040;5.692;2022-10-31T02:36:33;19.42;;;10.95;;
25717;SDS011;13574;52.040;5.692;2022-10-31T02:39:24;16.10;;;10.88;;
25717;SDS011;13574;52.040;5.692;2022-10-31T02:44:29;19.38;;;10.85;;
25717;SDS011;13574;52.040;5.692;2022-10-31T02:49:37;17.75;;;11.63;;
25717;SDS011;13574;52.040;5.692;2022-10-31T02:52:24;19.25;;;11.20;;
25717;SDS011;13574;52.040;5.692;2022-10-31T02:54:52;19.63;;;11.63;;
25717;SDS011;13574;52.040;5.692;2022-10-31T02:57:28;19.38;;;12.85;;
25717;SDS011;13574;52.040;5.692;2022-10-31T03:00:01;18.35;;;12.00;;
25717;SDS011;13574;52.040;5.692;2022-10-31T03:08:11;21.88;;;13.65;;
25717;SDS011;13574;52.040;5.692;2022-10-31T03:11:03;20.52;;;12.65;;
25717;SDS011;13574;52.040;5.692;2022-10-31T03:16:08;22.00;;;13.02;;
25717;SDS011;13574;52.040;5.692;2022-10-31T03:18:53;24.83;;;14.70;;
25717;SDS011;13574;52.040;5.692;2022-10-31T03:24:11;17.13;;;10.43;;
25717;SDS011;13574;52.040;5.692;2022-10-31T03:26:39;17.50;;;10.63;;
25717;SDS011;13574;52.040;5.692;2022-10-31T03:29:10;16.58;;;10.00;;
25717;SDS011;13574;52.040;5.692;2022-10-31T03:31:43;18.05;;;11.65;;
25717;SDS011;13574;52.040;5.692;2022-10-31T03:34:14;16.45;;;11.18;;
25717;SDS011;13574;52.040;5.692;2022-10-31T03:36:42;14.85;;;10.60;;
25717;SDS011;13574;52.040;5.692;2022-10-31T03:39:11;18.38;;;11.68;;
25717;SDS011;13574;52.040;5.692;2022-10-31T03:41:41;15.23;;;9.13;;
25717;SDS011;13574;52.040;5.692;2022-10-31T03:44:13;16.35;;;9.75;;
25717;SDS011;13574;52.040;5.692;2022-10-31T03:46:42;16.63;;;11.48;;
25717;SDS011;13574;52.040;5.692;2022-10-31T03:49:08;17.48;;;9.70;;
25717;SDS011;13574;52.040;5.692;2022-10-31T03:51:45;17.65;;;11.45;;
25717;SDS011;13574;52.040;5.692;2022-10-31T03:58:03;14.80;;;7.40;;
25717;SDS011;13574;52.040;5.692;2022-10-31T04:02:30;15.43;;;9.75;;
25717;SDS011;13574;52.040;5.692;2022-10-31T04:05:00;19.83;;;11.20;;
25717;SDS011;13574;52.040;5.692;2022-10-31T04:07:30;24.38;;;13.35;;
25717;SDS011;13574;52.040;5.692;2022-10-31T04:10:00;23.48;;;12.80;;
25717;SDS011;13574;52.040;5.692;2022-10-31T04:12:28;25.70;;;16.98;;
25717;SDS011;13574;52.040;5.692;2022-10-31T04:14:55;26.35;;;16.55;;
25717;SDS011;13574;52.040;5.692;2022-10-31T04:17:22;21.00;;;12.43;;
25717;SDS011;13574;52.040;5.692;2022-10-31T04:19:50;23.98;;;14.10;;
25717;SDS011;13574;52.040;5.692;2022-10-31T04:22:16;20.23;;;12.38;;
25717;SDS011;13574;52.040;5.692;2022-10-31T04:24:42;18.67;;;12.23;;
25717;SDS011;13574;52.040;5.692;2022-10-31T04:27:07;22.67;;;12.85;;
25717;SDS011;13574;52.040;5.692;2022-10-31T04:29:33;24.42;;;15.18;;
25717;SDS011;13574;52.040;5.692;2022-10-31T04:31:58;24.38;;;15.20;;
25717;SDS011;13574;52.040;5.692;2022-10-31T04:34:24;25.48;;;16.17;;
25717;SDS011;13574;52.040;5.692;2022-10-31T04:36:50;25.00;;;15.07;;
25717;SDS011;13574;52.040;5.692;2022-10-31T04:39:15;22.50;;;15.43;;
25717;SDS011;13574;52.040;5.692;2022-10-31T04:41:41;18.88;;;12.02;;
25717;SDS011;13574;52.040;5.692;2022-10-31T04:44:06;16.58;;;7.57;;
25717;SDS011;13574;52.040;5.692;2022-10-31T04:46:32;12.65;;;7.13;;
25717;SDS011;13574;52.040;5.692;2022-10-31T04:48:58;12.35;;;5.90;;
25717;SDS011;13574;52.040;5.692;2022-10-31T04:51:23;9.55;;;6.00;;
25717;SDS011;13574;52.040;5.692;2022-10-31T04:53:49;9.10;;;6.30;;
25717;SDS011;13574;52.040;5.692;2022-10-31T04:56:14;12.73;;;6.72;;
25717;SDS011;13574;52.040;5.692;2022-10-31T04:58:40;10.68;;;6.18;;
25717;SDS011;13574;52.040;5.692;2022-10-31T05:01:06;8.52;;;6.00;;
25717;SDS011;13574;52.040;5.692;2022-10-31T05:03:31;9.07;;;6.40;;
25717;SDS011;13574;52.040;5.692;2022-10-31T05:05:57;8.15;;;4.95;;
25717;SDS011;13574;52.040;5.692;2022-10-31T05:08:22;7.50;;;5.35;;
25717;SDS011;13574;52.040;5.692;2022-10-31T05:10:48;8.55;;;5.20;;
25717;SDS011;13574;52.040;5.692;2022-10-31T05:13:14;7.15;;;5.25;;
25717;SDS011;13574;52.040;5.692;2022-10-31T05:15:40;12.30;;;8.15;;
25717;SDS011;13574;52.040;5.692;2022-10-31T05:18:06;18.40;;;11.13;;
25717;SDS011;13574;52.040;5.692;2022-10-31T05:20:32;16.50;;;12.13;;
25717;SDS011;13574;52.040;5.692;2022-10-31T05:22:58;19.58;;;13.48;;
25717;SDS011;13574;52.040;5.692;2022-10-31T05:25:25;21.15;;;12.40;;
25717;SDS011;13574;52.040;5.692;2022-10-31T05:27:52;20.42;;;13.18;;
25717;SDS011;13574;52.040;5.692;2022-10-31T05:30:21;23.13;;;15.30;;
25717;SDS011;13574;52.040;5.692;2022-10-31T05:32:51;23.05;;;13.55;;
25717;SDS011;13574;52.040;5.692;2022-10-31T05:35:19;19.27;;;11.77;;
25717;SDS011;13574;52.040;5.692;2022-10-31T05:37:49;15.68;;;10.82;;
25717;SDS011;13574;52.040;5.692;2022-10-31T05:40:16;14.90;;;10.13;;
25717;SDS011;13574;52.040;5.692;2022-10-31T05:42:43;19.75;;;11.23;;
25717;SDS011;13574;52.040;5.692;2022-10-31T05:45:09;15.05;;;11.10;;
25717;SDS011;13574;52.040;5.692;2022-10-31T05:47:38;16.13;;;11.15;;
25717;SDS011;13574;52.040;5.692;2022-10-31T05:50:03;19.20;;;13.02;;
25717;SDS011;13574;52.040;5.692;2022-10-31T05:52:30;16.27;;;11.48;;
25717;SDS011;13574;52.040;5.692;2022-10-31T05:54:55;18.27;;;12.73;;
25717;SDS011;13574;52.040;5.692;2022-10-31T05:57:21;22.15;;;13.13;;
25717;SDS011;13574;52.040;5.692;2022-10-31T05:59:46;20.20;;;13.40;;
25717;SDS011;13574;52.040;5.692;2022-10-31T06:02:12;20.92;;;14.20;;
25717;SDS011;13574;52.040;5.692;2022-10-31T06:04:38;21.70;;;14.68;;
25717;SDS011;13574;52.040;5.692;2022-10-31T06:07:03;21.15;;;14.30;;
25717;SDS011;13574;52.040;5.692;2022-10-31T06:09:29;20.42;;;13.95;;
25717;SDS011;13574;52.040;5.692;2022-10-31T06:11:55;22.73;;;13.52;;
25717;SDS011;13574;52.040;5.692;2022-10-31T06:14:20;20.55;;;13.13;;
25717;SDS011;13574;52.040;5.692;2022-10-31T06:16:46;17.10;;;12.35;;
25717;SDS011;13574;52.040;5.692;2022-10-31T06:19:12;18.05;;;12.90;;
25717;SDS011;13574;52.040;5.692;2022-10-31T06:21:37;20.83;;;12.00;;
25717;SDS011;13574;52.040;5.692;2022-10-31T06:24:03;22.63;;;13.90;;
25717;SDS011;13574;52.040;5.692;2022-10-31T06:26:29;22.23;;;13.38;;
25717;SDS011;13574;52.040;5.692;2022-10-31T06:28:54;19.20;;;11.95;;
25717;SDS011;13574;52.040;5.692;2022-10-31T06:31:20;22.67;;;12.77;;
25717;SDS011;13574;52.040;5.692;2022-10-31T06:33:46;18.63;;;13.23;;
25717;SDS011;13574;52.040;5.692;2022-10-31T06:36:11;22.58;;;12.57;;
25717;SDS011;13574;52.040;5.692;2022-10-31T06:38:37;21.05;;;12.23;;
25717;SDS011;13574;52.040;5.692;2022-10-31T06:41:03;16.65;;;11.32;;
25717;SDS011;13574;52.040;5.692;2022-10-31T06:43:30;15.55;;;10.75;;
25717;SDS011;13574;52.040;5.692;2022-10-31T06:45:56;13.50;;;9.65;;
25717;SDS011;13574;52.040;5.692;2022-10-31T06:48:21;17.40;;;11.35;;
25717;SDS011;13574;52.040;5.692;2022-10-31T06:50:47;18.55;;;10.75;;
25717;SDS011;13574;52.040;5.692;2022-10-31T06:53:13;18.48;;;11.13;;
25717;SDS011;13574;52.040;5.692;2022-10-31T06:55:39;18.13;;;10.85;;
25717;SDS011;13574;52.040;5.692;2022-10-31T06:58:05;22.52;;;12.85;;
25717;SDS011;13574;52.040;5.692;2022-10-31T07:00:31;23.92;;;12.73;;
25717;SDS011;13574;52.040;5.692;2022-10-31T07:02:58;15.70;;;11.38;;
25717;SDS011;13574;52.040;5.692;2022-10-31T07:05:28;17.35;;;10.50;;
25717;SDS011;13574;52.040;5.692;2022-10-31T07:07:55;14.93;;;9.52;;
25717;SDS011;13574;52.040;5.692;2022-10-31T07:10:25;13.82;;;9.45;;
25717;SDS011;13574;52.040;5.692;2022-10-31T07:12:55;13.00;;;8.95;;
25717;SDS011;13574;52.040;5.692;2022-10-31T07:15:22;17.50;;;9.35;;
25717;SDS011;13574;52.040;5.692;2022-10-31T07:17:48;18.58;;;9.38;;
25717;SDS011;13574;52.040;5.692;2022-10-31T07:20:14;15.60;;;9.65;;
25717;SDS011;13574;52.040;5.692;2022-10-31T07:22:40;14.60;;;9.18;;
25717;SDS011;13574;52.040;5.692;2022-10-31T07:25:09;14.40;;;10.07;;
25717;SDS011;13574;52.040;5.692;2022-10-31T07:27:36;12.07;;;9.73;;
25717;SDS011;13574;52.040;5.692;2022-10-31T07:30:06;14.90;;;10.50;;
25717;SDS011;13574;52.040;5.692;2022-10-31T07:32:39;13.98;;;9.55;;
25717;SDS011;13574;52.040;5.692;2022-10-31T07:35:10;15.10;;;8.88;;
25717;SDS011;13574;52.040;5.692;2022-10-31T07:37:40;14.00;;;9.30;;
25717;SDS011;13574;52.040;5.692;2022-10-31T07:40:06;14.75;;;9.23;;
25717;SDS011;13574;52.040;5.692;2022-10-31T07:42:36;14.43;;;9.43;;
25717;SDS011;13574;52.040;5.692;2022-10-31T07:45:04;19.52;;;10.32;;
25717;SDS011;13574;52.040;5.692;2022-10-31T07:47:38;16.23;;;9.55;;
25717;SDS011;13574;52.040;5.692;2022-10-31T07:50:15;16.38;;;9.65;;
25717;SDS011;13574;52.040;5.692;2022-10-31T07:52:42;16.95;;;10.30;;
25717;SDS011;13574;52.040;5.692;2022-10-31T07:55:08;15.00;;;10.25;;
25717;SDS011;13574;52.040;5.692;2022-10-31T07:57:34;17.10;;;10.52;;
25717;SDS011;13574;52.040;5.692;2022-10-31T08:00:02;17.58;;;10.50;;
25717;SDS011;13574;52.040;5.692;2022-10-31T08:04:58;16.83;;;10.93;;
25717;SDS011;13574;52.040;5.692;2022-10-31T08:07:24;19.70;;;11.60;;
25717;SDS011;13574;52.040;5.692;2022-10-31T08:09:51;21.80;;;12.70;;
25717;SDS011;13574;52.040;5.692;2022-10-31T08:12:17;26.80;;;16.73;;
25717;SDS011;13574;52.040;5.692;2022-10-31T08:14:42;24.00;;;15.57;;
25717;SDS011;13574;52.040;5.692;2022-10-31T08:17:09;27.63;;;16.80;;
25717;SDS011;13574;52.040;5.692;2022-10-31T08:19:35;31.85;;;16.80;;
25717;SDS011;13574;52.040;5.692;2022-10-31T08:22:01;29.27;;;18.23;;
25717;SDS011;13574;52.040;5.692;2022-10-31T08:24:26;29.92;;;18.30;;
25717;SDS011;13574;52.040;5.692;2022-10-31T08:26:52;35.53;;;18.55;;
25717;SDS011;13574;52.040;5.692;2022-10-31T08:29:18;21.48;;;14.63;;
25717;SDS011;13574;52.040;5.692;2022-10-31T08:31:43;18.02;;;12.68;;
25717;SDS011;13574;52.040;5.692;2022-10-31T08:34:09;21.20;;;12.68;;
25717;SDS011;13574;52.040;5.692;2022-10-31T08:36:35;18.42;;;12.48;;
25717;SDS011;13574;52.040;5.692;2022-10-31T08:39:01;23.02;;;13.63;;
25717;SDS011;13574;52.040;5.692;2022-10-31T08:41:27;25.27;;;14.30;;
25717;SDS011;13574;52.040;5.692;2022-10-31T08:43:53;23.30;;;14.45;;
25717;SDS011;13574;52.040;5.692;2022-10-31T08:46:21;23.73;;;14.88;;
25717;SDS011;13574;52.040;5.692;2022-10-31T08:48:47;23.60;;;15.73;;
25717;SDS011;13574;52.040;5.692;2022-10-31T08:51:13;24.02;;;14.93;;
25717;SDS011;13574;52.040;5.692;2022-10-31T08:53:39;28.20;;;16.05;;
25717;SDS011;13574;52.040;5.692;2022-10-31T08:56:05;24.25;;;15.68;;
25717;SDS011;13574;52.040;5.692;2022-10-31T08:58:31;24.77;;;14.75;;
25717;SDS011;13574;52.040;5.692;2022-10-31T09:00:58;25.33;;;14.77;;
25717;SDS011;13574;52.040;5.692;2022-10-31T09:03:26;21.02;;;14.20;;
25717;SDS011;13574;52.040;5.692;2022-10-31T09:05:56;23.90;;;14.27;;
25717;SDS011;13574;52.040;5.692;2022-10-31T09:08:24;22.55;;;14.13;;
25717;SDS011;13574;52.040;5.692;2022-10-31T09:10:50;25.77;;;15.32;;
25717;SDS011;13574;52.040;5.692;2022-10-31T09:13:17;22.98;;;15.55;;
25717;SDS011;13574;52.040;5.692;2022-10-31T09:15:45;27.67;;;15.70;;
25717;SDS011;13574;52.040;5.692;2022-10-31T09:18:12;28.45;;;15.43;;
25717;SDS011;13574;52.040;5.692;2022-10-31T09:20:41;28.08;;;16.73;;
25717;SDS011;13574;52.040;5.692;2022-10-31T09:23:14;23.30;;;15.00;;
25717;SDS011;13574;52.040;5.692;2022-10-31T09:25:40;26.13;;;15.93;;
25717;SDS011;13574;52.040;5.692;2022-10-31T09:28:08;21.83;;;14.18;;
25717;SDS011;13574;52.040;5.692;2022-10-31T09:30:35;25.08;;;14.43;;
25717;SDS011;13574;52.040;5.692;2022-10-31T09:33:05;20.88;;;14.05;;
25717;SDS011;13574;52.040;5.692;2022-10-31T09:35:33;22.08;;;13.15;;
25717;SDS011;13574;52.040;5.692;2022-10-31T09:38:03;24.13;;;14.38;;
25717;SDS011;13574;52.040;5.692;2022-10-31T09:40:35;24.77;;;13.77;;
25717;SDS011;13574;52.040;5.692;2022-10-31T09:43:05;24.58;;;13.63;;
25717;SDS011;13574;52.040;5.692;2022-10-31T09:45:53;23.67;;;13.95;;
25717;SDS011;13574;52.040;5.692;2022-10-31T09:48:49;24.27;;;14.05;;
25717;SDS011;13574;52.040;5.692;2022-10-31T09:51:34;20.73;;;12.73;;
25717;SDS011;13574;52.040;5.692;2022-10-31T09:54:10;22.77;;;12.57;;
25717;SDS011;13574;52.040;5.692;2022-10-31T09:56:42;18.67;;;11.93;;
25717;SDS011;13574;52.040;5.692;2022-10-31T09:59:30;20.58;;;12.38;;
25717;SDS011;13574;52.040;5.692;2022-10-31T10:05:11;22.77;;;12.88;;
25717;SDS011;13574;52.040;5.692;2022-10-31T10:07:59;17.73;;;12.20;;
25717;SDS011;13574;52.040;5.692;2022-10-31T10:11:21;24.25;;;13.07;;
25717;SDS011;13574;52.040;5.692;2022-10-31T10:13:27;23.38;;;13.70;;
25717;SDS011;13574;52.040;5.692;2022-10-31T10:16:28;23.10;;;13.27;;
25717;SDS011;13574;52.040;5.692;2022-10-31T10:26:36;27.17;;;16.83;;
25717;SDS011;13574;52.040;5.692;2022-10-31T10:31:48;33.17;;;18.08;;
25717;SDS011;13574;52.040;5.692;2022-10-31T10:36:50;30.20;;;16.75;;
25717;SDS011;13574;52.040;5.692;2022-10-31T10:39:31;29.80;;;18.17;;
25717;SDS011;13574;52.040;5.692;2022-10-31T10:42:10;31.95;;;18.48;;
25717;SDS011;13574;52.040;5.692;2022-10-31T10:45:16;33.92;;;18.58;;
25717;SDS011;13574;52.040;5.692;2022-10-31T10:48:05;30.73;;;19.02;;
25717;SDS011;13574;52.040;5.692;2022-10-31T10:50:51;31.15;;;18.00;;
25717;SDS011;13574;52.040;5.692;2022-10-31T10:59:15;38.85;;;20.73;;
25717;SDS011;13574;52.040;5.692;2022-10-31T11:01:43;35.92;;;19.63;;
25717;SDS011;13574;52.040;5.692;2022-10-31T11:04:26;35.83;;;20.83;;
25717;SDS011;13574;52.040;5.692;2022-10-31T11:07:00;38.38;;;20.60;;
25717;SDS011;13574;52.040;5.692;2022-10-31T11:09:34;33.47;;;18.88;;
25717;SDS011;13574;52.040;5.692;2022-10-31T11:12:05;32.30;;;19.00;;
25717;SDS011;13574;52.040;5.692;2022-10-31T11:14:51;32.00;;;17.75;;
25717;SDS011;13574;52.040;5.692;2022-10-31T11:17:30;31.85;;;17.35;;
25717;SDS011;13574;52.040;5.692;2022-10-31T11:20:16;30.42;;;17.10;;
25717;SDS011;13574;52.040;5.692;2022-10-31T11:23:15;35.45;;;17.90;;
25717;SDS011;13574;52.040;5.692;2022-10-31T11:25:57;30.33;;;17.42;;
25717;SDS011;13574;52.040;5.692;2022-10-31T11:28:23;34.78;;;17.75;;
25717;SDS011;13574;52.040;5.692;2022-10-31T11:31:06;25.80;;;16.00;;
25717;SDS011;13574;52.040;5.692;2022-10-31T11:33:34;31.60;;;18.35;;
25717;SDS011;13574;52.040;5.692;2022-10-31T11:36:23;30.75;;;17.92;;
25717;SDS011;13574;52.040;5.692;2022-10-31T11:38:51;37.58;;;18.48;;
25717;SDS011;13574;52.040;5.692;2022-10-31T11:44:20;32.00;;;18.88;;
25717;SDS011;13574;52.040;5.692;2022-10-31T11:46:55;36.63;;;19.77;;
25717;SDS011;13574;52.040;5.692;2022-10-31T11:49:31;34.53;;;20.35;;
25717;SDS011;13574;52.040;5.692;2022-10-31T11:52:03;38.30;;;19.73;;
25717;SDS011;13574;52.040;5.692;2022-10-31T11:54:59;38.70;;;20.90;;
25717;SDS011;13574;52.040;5.692;2022-10-31T11:57:56;40.30;;;21.75;;
25717;SDS011;13574;52.040;5.692;2022-10-31T12:02:51;45.92;;;22.42;;
25717;SDS011;13574;52.040;5.692;2022-10-31T12:05:35;44.97;;;22.83;;
25717;SDS011;13574;52.040;5.692;2022-10-31T12:08:03;44.03;;;22.77;;
25717;SDS011;13574;52.040;5.692;2022-10-31T12:10:35;46.80;;;23.30;;
25717;SDS011;13574;52.040;5.692;2022-10-31T12:13:24;48.05;;;23.73;;
25717;SDS011;13574;52.040;5.692;2022-10-31T12:30:02;53.13;;;24.30;;
25717;SDS011;13574;52.040;5.692;2022-10-31T12:32:48;45.67;;;23.98;;
25717;SDS011;13574;52.040;5.692;2022-10-31T12:38:43;48.00;;;24.27;;
25717;SDS011;13574;52.040;5.692;2022-10-31T12:41:30;43.42;;;23.83;;
25717;SDS011;13574;52.040;5.692;2022-10-31T12:44:16;46.70;;;23.63;;
25717;SDS011;13574;52.040;5.692;2022-10-31T12:47:07;40.95;;;23.00;;
25717;SDS011;13574;52.040;5.692;2022-10-31T12:53:10;46.33;;;24.17;;
25717;SDS011;13574;52.040;5.692;2022-10-31T12:58:46;41.47;;;23.45;;
25717;SDS011;13574;52.040;5.692;2022-10-31T13:01:32;46.80;;;23.90;;
25717;SDS011;13574;52.040;5.692;2022-10-31T13:04:18;43.30;;;23.92;;
25717;SDS011;13574;52.040;5.692;2022-10-31T13:06:49;44.65;;;23.42;;
25717;SDS011;13574;52.040;5.692;2022-10-31T13:09:23;42.55;;;24.20;;
25717;SDS011;13574;52.040;5.692;2022-10-31T13:12:01;41.60;;;23.20;;
25717;SDS011;13574;52.040;5.692;2022-10-31T13:14:33;43.63;;;23.95;;
25717;SDS011;13574;52.040;5.692;2022-10-31T13:17:15;44.28;;;22.85;;
25717;SDS011;13574;52.040;5.692;2022-10-31T13:20:05;42.65;;;23.70;;
25717;SDS011;13574;52.040;5.692;2022-10-31T13:22:46;41.10;;;23.27;;
25717;SDS011;13574;52.040;5.692;2022-10-31T13:25:18;40.67;;;23.13;;
25717;SDS011;13574;52.040;5.692;2022-10-31T13:28:03;43.13;;;22.83;;
25717;SDS011;13574;52.040;5.692;2022-10-31T13:30:38;41.00;;;23.08;;
25717;SDS011;13574;52.040;5.692;2022-10-31T13:33:20;44.13;;;23.13;;
25717;SDS011;13574;52.040;5.692;2022-10-31T13:39:03;48.75;;;25.00;;
25717;SDS011;13574;52.040;5.692;2022-10-31T13:46:39;44.70;;;23.40;;
25717;SDS011;13574;52.040;5.692;2022-10-31T13:54:48;43.15;;;22.55;;
25717;SDS011;13574;52.040;5.692;2022-10-31T13:57:31;44.47;;;23.30;;
25717;SDS011;13574;52.040;5.692;2022-10-31T14:02:53;42.67;;;22.88;;
25717;SDS011;13574;52.040;5.692;2022-10-31T14:07:51;38.75;;;21.75;;
25717;SDS011;13574;52.040;5.692;2022-10-31T14:13:20;42.42;;;22.27;;
25717;SDS011;13574;52.040;5.692;2022-10-31T14:16:01;46.03;;;23.00;;
25717;SDS011;13574;52.040;5.692;2022-10-31T14:18:39;75.10;;;23.10;;
25717;SDS011;13574;52.040;5.692;2022-10-31T14:23:48;36.80;;;19.73;;
25717;SDS011;13574;52.040;5.692;2022-10-31T14:34:43;38.47;;;19.58;;
25717;SDS011;13574;52.040;5.692;2022-10-31T14:51:08;37.97;;;18.98;;
25717;SDS011;13574;52.040;5.692;2022-10-31T14:54:01;38.60;;;19.15;;
25717;SDS011;13574;52.040;5.692;2022-10-31T14:56:31;38.38;;;19.23;;
25717;SDS011;13574;52.040;5.692;2022-10-31T14:59:07;39.55;;;19.80;;
25717;SDS011;13574;52.040;5.692;2022-10-31T15:01:37;41.83;;;19.42;;
25717;SDS011;13574;52.040;5.692;2022-10-31T15:06:45;34.10;;;18.77;;
25717;SDS011;13574;52.040;5.692;2022-10-31T15:09:24;36.20;;;18.92;;
25717;SDS011;13574;52.040;5.692;2022-10-31T15:11:52;38.03;;;20.20;;
25717;SDS011;13574;52.040;5.692;2022-10-31T15:14:26;39.95;;;20.92;;
25717;SDS011;13574;52.040;5.692;2022-10-31T15:16:55;43.25;;;19.95;;
25717;SDS011;13574;52.040;5.692;2022-10-31T15:19:23;39.03;;;19.08;;
25717;SDS011;13574;52.040;5.692;2022-10-31T15:21:51;41.67;;;20.85;;
25717;SDS011;13574;52.040;5.692;2022-10-31T15:24:18;40.35;;;20.27;;
25717;SDS011;13574;52.040;5.692;2022-10-31T15:26:46;36.20;;;20.08;;
25717;SDS011;13574;52.040;5.692;2022-10-31T15:29:16;38.08;;;20.48;;
25717;SDS011;13574;52.040;5.692;2022-10-31T15:31:49;40.28;;;20.30;;
25717;SDS011;13574;52.040;5.692;2022-10-31T15:34:20;35.42;;;19.83;;
25717;SDS011;13574;52.040;5.692;2022-10-31T15:36:49;42.45;;;20.23;;
25717;SDS011;13574;52.040;5.692;2022-10-31T15:39:15;38.85;;;18.58;;
25717;SDS011;13574;52.040;5.692;2022-10-31T15:41:52;34.65;;;19.10;;
25717;SDS011;13574;52.040;5.692;2022-10-31T15:44:30;40.75;;;19.95;;
25717;SDS011;13574;52.040;5.692;2022-10-31T15:47:03;37.53;;;19.35;;
25717;SDS011;13574;52.040;5.692;2022-10-31T15:52:11;37.28;;;18.55;;
25717;SDS011;13574;52.040;5.692;2022-10-31T15:54:42;36.28;;;18.40;;
25717;SDS011;13574;52.040;5.692;2022-10-31T15:57:11;37.67;;;19.13;;
25717;SDS011;13574;52.040;5.692;2022-10-31T15:59:37;38.50;;;18.88;;
25717;SDS011;13574;52.040;5.692;2022-10-31T16:02:09;40.55;;;19.00;;
25717;SDS011;13574;52.040;5.692;2022-10-31T16:04:36;40.60;;;19.63;;
25717;SDS011;13574;52.040;5.692;2022-10-31T16:07:23;40.63;;;20.58;;
25717;SDS011;13574;52.040;5.692;2022-10-31T16:09:58;37.67;;;20.45;;
25717;SDS011;13574;52.040;5.692;2022-10-31T16:12:27;36.75;;;19.50;;
25717;SDS011;13574;52.040;5.692;2022-10-31T16:14:59;36.63;;;19.42;;
25717;SDS011;13574;52.040;5.692;2022-10-31T16:17:25;41.75;;;20.33;;
25717;SDS011;13574;52.040;5.692;2022-10-31T16:19:54;41.05;;;20.23;;
25717;SDS011;13574;52.040;5.692;2022-10-31T16:22:29;40.80;;;20.67;;
25717;SDS011;13574;52.040;5.692;2022-10-31T16:27:31;42.80;;;20.17;;
25717;SDS011;13574;52.040;5.692;2022-10-31T16:30:00;38.70;;;20.90;;
25717;SDS011;13574;52.040;5.692;2022-10-31T16:37:39;38.70;;;21.45;;
25717;SDS011;13574;52.040;5.692;2022-10-31T16:40:05;37.80;;;21.80;;
25717;SDS011;13574;52.040;5.692;2022-10-31T16:42:31;40.58;;;24.77;;
25717;SDS011;13574;52.040;5.692;2022-10-31T16:44:57;90.70;;;55.33;;
25717;SDS011;13574;52.040;5.692;2022-10-31T16:47:24;43.78;;;23.70;;
25717;SDS011;13574;52.040;5.692;2022-10-31T16:49:50;42.65;;;21.13;;
25717;SDS011;13574;52.040;5.692;2022-10-31T16:52:16;46.72;;;26.95;;
25717;SDS011;13574;52.040;5.692;2022-10-31T16:54:42;48.75;;;23.65;;
25717;SDS011;13574;52.040;5.692;2022-10-31T16:57:12;48.05;;;23.20;;
25717;SDS011;13574;52.040;5.692;2022-10-31T16:59:40;47.15;;;23.35;;
25717;SDS011;13574;52.040;5.692;2022-10-31T17:02:11;52.83;;;31.90;;
25717;SDS011;13574;52.040;5.692;2022-10-31T17:04:42;53.17;;;29.65;;
25717;SDS011;13574;52.040;5.692;2022-10-31T17:07:09;52.35;;;29.48;;
25717;SDS011;13574;52.040;5.692;2022-10-31T17:09:34;45.55;;;23.08;;
25717;SDS011;13574;52.040;5.692;2022-10-31T17:12:00;42.20;;;22.65;;
25717;SDS011;13574;52.040;5.692;2022-10-31T17:14:29;46.92;;;24.15;;
25717;SDS011;13574;52.040;5.692;2022-10-31T17:16:55;46.85;;;24.98;;
25717;SDS011;13574;52.040;5.692;2022-10-31T17:19:21;49.55;;;23.25;;
25717;SDS011;13574;52.040;5.692;2022-10-31T17:21:46;42.78;;;24.08;;
25717;SDS011;13574;52.040;5.692;2022-10-31T17:24:14;45.47;;;23.00;;